createdAt,value
2022-12-08T00:00:00.547Z,984.5
2022-12-08T00:05:00.918Z,984
2022-12-08T00:10:00.466Z,984.3
2022-12-08T00:15:00.904Z,984.5
2022-12-08T00:20:00.441Z,984.5
2022-12-08T00:25:00.732Z,984.3
2022-12-08T00:30:00.464Z,984.3
2022-12-08T00:35:00.659Z,984.9
2022-12-08T00:40:00.544Z,984.5
2022-12-08T00:45:00.406Z,984.5
2022-12-08T00:50:00.590Z,984.9
2022-12-08T00:55:00.417Z,984.5
2022-12-08T01:00:00.603Z,984.7
2022-12-08T01:05:00.433Z,984.5
2022-12-08T01:10:00.449Z,984
2022-12-08T01:15:02.480Z,984.5
2022-12-08T01:20:00.388Z,984.5
2022-12-08T01:25:00.252Z,984.5
2022-12-08T01:30:00.112Z,984.9
2022-12-08T01:35:00.122Z,984.9
2022-12-08T01:40:00.121Z,984.9
2022-12-08T01:45:00.120Z,984.9
2022-12-08T01:50:00.116Z,984.9
2022-12-08T01:55:00.131Z,984.9
2022-12-08T02:00:00.141Z,985.1
2022-12-08T02:05:00.124Z,984.9
2022-12-08T02:10:00.184Z,985.4
2022-12-08T02:15:04.846Z,985.4
2022-12-08T02:20:00.145Z,985.6
2022-12-08T02:25:00.145Z,985.8
2022-12-08T02:30:00.191Z,986
2022-12-08T02:35:00.248Z,986.4
2022-12-08T02:40:00.170Z,986.4
2022-12-08T02:45:00.185Z,986.4
2022-12-08T02:50:00.245Z,986.2
2022-12-08T02:55:00.273Z,986.4
2022-12-08T03:00:00.283Z,986.7
2022-12-08T03:05:00.804Z,986.2
2022-12-08T03:10:00.946Z,986.4
2022-12-08T03:15:00.731Z,986.2
2022-12-08T03:20:00.910Z,986.2
2022-12-08T03:25:00.721Z,986.7
2022-12-08T03:30:00.773Z,986.2
2022-12-08T03:35:00.716Z,986.2
2022-12-08T03:40:00.731Z,986.2
2022-12-08T03:45:00.754Z,986
2022-12-08T03:50:00.838Z,986.2
2022-12-08T03:55:00.764Z,986
2022-12-08T04:00:00.853Z,986
2022-12-08T04:05:00.775Z,985.8
2022-12-08T04:10:00.752Z,985.8
2022-12-08T04:15:00.760Z,985.8
2022-12-08T04:20:00.914Z,985.8
2022-12-08T04:25:00.775Z,986.2
2022-12-08T04:30:00.776Z,985.6
2022-12-08T04:35:00.773Z,985.4
2022-12-08T04:40:00.946Z,985.8
2022-12-08T04:45:00.782Z,985.4
2022-12-08T04:50:00.951Z,985.4
2022-12-08T04:55:00.790Z,985.8
2022-12-08T05:00:00.800Z,985.4
2022-12-08T05:05:00.806Z,985.8
2022-12-08T05:10:01.038Z,985.8
2022-12-08T05:15:00.809Z,986
2022-12-08T05:20:01.060Z,985.8
2022-12-08T05:25:00.835Z,985.8
2022-12-08T05:30:01.017Z,985.8
2022-12-08T05:35:00.834Z,985.8
2022-12-08T05:40:00.841Z,986
2022-12-08T05:45:00.864Z,986.2
2022-12-08T05:50:00.931Z,985.8
2022-12-08T05:55:01.034Z,986
2022-12-08T06:00:01.392Z,986
2022-12-08T06:05:01.170Z,985.8
2022-12-08T06:10:01.293Z,985.6
2022-12-08T06:15:01.180Z,985.8
2022-12-08T06:20:01.418Z,985.8
2022-12-08T06:25:03.277Z,986
2022-12-08T06:30:01.326Z,986.2
2022-12-08T06:35:01.214Z,986.2
2022-12-08T06:40:02.515Z,986.2
2022-12-08T06:45:01.227Z,986.7
2022-12-08T06:50:01.492Z,986.7
2022-12-08T06:55:01.232Z,987.1
2022-12-08T07:00:01.464Z,987.1
2022-12-08T07:05:01.234Z,987.1
2022-12-08T07:10:01.260Z,987.1
2022-12-08T07:15:01.248Z,987.1
2022-12-08T07:20:01.739Z,987.5
2022-12-08T07:25:00.469Z,987.5
2022-12-08T07:30:00.610Z,987.3
2022-12-08T07:35:00.490Z,987.1
2022-12-08T07:40:00.499Z,986.2
2022-12-08T07:45:00.486Z,986.2
2022-12-08T07:50:00.513Z,986.7
2022-12-08T07:55:00.495Z,986.4
2022-12-08T08:00:00.539Z,986.2
2022-12-08T08:05:00.641Z,985.8
2022-12-08T08:10:00.563Z,986
2022-12-08T08:15:00.568Z,985.8
2022-12-08T08:20:00.570Z,985.4
2022-12-08T08:25:00.520Z,984.9
2022-12-08T08:30:00.547Z,984.9
2022-12-08T08:35:00.522Z,984.9
2022-12-08T08:40:00.531Z,984.5
2022-12-08T08:45:00.574Z,983.8
2022-12-08T08:50:00.593Z,983.6
2022-12-08T08:55:00.550Z,983.2
2022-12-08T09:00:00.608Z,983.2
2022-12-08T09:05:00.692Z,981.4
2022-12-08T09:10:02.188Z,981.4
2022-12-08T09:15:00.567Z,981.4
2022-12-08T09:20:00.575Z,980.6
2022-12-08T09:25:00.596Z,979.9
2022-12-08T09:30:00.593Z,978.8
2022-12-08T09:35:00.654Z,977.5
2022-12-08T09:40:00.608Z,978
2022-12-08T09:45:00.597Z,978.6
2022-12-08T09:50:00.659Z,979.7
2022-12-08T09:55:01.132Z,978
2022-12-08T10:00:01.395Z,976.7
2022-12-08T10:05:00.864Z,976.7
2022-12-08T10:10:00.673Z,977.5
2022-12-08T10:15:00.680Z,976.7
2022-12-08T10:20:00.665Z,975.8
2022-12-08T10:25:00.637Z,973.8
2022-12-08T10:30:00.640Z,973.6
2022-12-08T10:35:00.642Z,974.5
2022-12-08T10:40:00.771Z,972.7
2022-12-08T10:45:00.662Z,971.4
2022-12-08T10:50:00.660Z,972.3
2022-12-08T10:55:00.660Z,971.4
2022-12-08T11:00:00.675Z,970.6
2022-12-08T11:05:00.695Z,971.7
2022-12-08T11:10:00.673Z,971.4
2022-12-08T11:15:00.682Z,971.7
2022-12-08T11:20:00.719Z,968.4
2022-12-08T11:25:00.709Z,971
2022-12-08T11:30:00.702Z,969.7
2022-12-08T11:35:00.701Z,971
2022-12-08T11:40:00.707Z,971.4
2022-12-08T11:45:00.708Z,969.7
2022-12-08T11:50:00.719Z,971.7
2022-12-08T11:55:00.737Z,970.4
2022-12-08T12:00:00.717Z,969.3
2022-12-08T12:05:00.725Z,968.8
2022-12-08T12:10:00.738Z,969.3
2022-12-08T12:15:00.768Z,967.3
2022-12-08T12:20:00.737Z,968.4
2022-12-08T12:25:00.759Z,969.9
2022-12-08T12:30:00.752Z,970.1
2022-12-08T12:35:00.759Z,970.6
2022-12-08T12:40:00.774Z,968.6
2022-12-08T12:45:00.773Z,969.3
2022-12-08T12:50:00.776Z,968.8
2022-12-08T12:55:00.793Z,967.1
2022-12-08T13:00:00.781Z,968
2022-12-08T13:05:00.784Z,969.3
2022-12-08T13:10:00.799Z,969.9
2022-12-08T13:15:00.797Z,967.5
2022-12-08T13:20:00.789Z,968.6
2022-12-08T13:25:00.648Z,969.3
2022-12-08T13:30:00.509Z,969.7
2022-12-08T13:35:00.398Z,969.5
2022-12-08T13:40:00.405Z,970.4
2022-12-08T13:45:43.550Z,970.1
2022-12-08T13:56:24.890Z,968.4
2022-12-08T14:00:00.422Z,969.3
2022-12-08T14:05:26.306Z,968.4
2022-12-08T14:10:00.442Z,969.3
2022-12-08T14:15:03.701Z,968.4
2022-12-08T14:20:00.446Z,970.1
2022-12-08T14:25:00.443Z,970.4
2022-12-08T14:30:00.460Z,970.1
2022-12-08T14:35:00.464Z,970.4
2022-12-08T14:40:00.469Z,971
2022-12-08T14:45:00.471Z,971
2022-12-08T14:50:00.479Z,970.8
2022-12-08T14:55:00.490Z,971
2022-12-08T15:00:00.493Z,970.6
2022-12-08T15:05:00.560Z,972.7
2022-12-08T15:10:00.498Z,972.5
2022-12-08T15:15:00.506Z,971.7
2022-12-08T15:20:00.509Z,973
2022-12-08T15:25:00.512Z,973
2022-12-08T15:30:00.628Z,974.3
2022-12-08T15:35:00.563Z,975.4
2022-12-08T15:40:00.638Z,975.8
2022-12-08T15:45:00.637Z,976.7
2022-12-08T15:50:00.637Z,976.7
2022-12-08T15:55:00.696Z,976.7
2022-12-08T16:00:00.665Z,976.9
2022-12-08T16:05:40.142Z,977.5
2022-12-08T16:10:00.802Z,977.5
2022-12-08T16:20:00.660Z,978.4
2022-12-08T16:25:14.620Z,978.4
2022-12-08T16:30:00.618Z,978.8
2022-12-08T16:35:00.586Z,978.8
2022-12-08T16:40:00.665Z,979.3
2022-12-08T16:45:00.601Z,980.1
2022-12-08T16:50:00.605Z,980.6
2022-12-08T16:55:00.610Z,980.6
2022-12-08T17:00:00.607Z,981
2022-12-08T17:05:00.685Z,981.4
2022-12-08T17:10:00.626Z,981
2022-12-08T17:15:00.623Z,980.8
2022-12-08T17:20:00.643Z,981.4
2022-12-08T17:25:00.636Z,981.7
2022-12-08T17:30:00.656Z,981.4
2022-12-08T17:35:00.647Z,981.9
2022-12-08T17:40:00.661Z,981.9
2022-12-08T17:45:00.656Z,981.9
2022-12-08T17:50:01.554Z,982.1
2022-12-08T17:55:00.666Z,982.3
2022-12-08T18:00:00.697Z,982.7
2022-12-08T18:05:00.686Z,983.2
2022-12-08T18:10:00.689Z,983.2
2022-12-08T18:15:00.689Z,983.4
2022-12-08T18:20:00.707Z,983.2
2022-12-08T18:25:00.690Z,983.4
2022-12-08T18:30:00.723Z,983.6
2022-12-08T18:35:00.710Z,983.6
2022-12-08T18:40:00.712Z,984
2022-12-08T18:45:00.723Z,984
2022-12-08T18:50:00.742Z,984
2022-12-08T18:55:07.445Z,984
2022-12-08T19:00:00.736Z,984.7
2022-12-08T19:05:00.742Z,984.9
2022-12-08T19:10:00.736Z,984.5
2022-12-08T19:15:00.747Z,984.9
2022-12-08T19:20:00.747Z,984.9
2022-12-08T19:25:00.639Z,984.9
2022-12-08T19:30:00.479Z,984.9
2022-12-08T19:35:00.405Z,984.9
2022-12-08T19:40:00.416Z,985.4
2022-12-08T19:45:00.402Z,984.9
2022-12-08T19:50:00.424Z,984.9
2022-12-08T19:55:00.413Z,985.4
2022-12-08T20:00:00.430Z,985.6
2022-12-08T20:05:00.419Z,985.4
2022-12-08T20:10:00.427Z,985.8
2022-12-08T20:15:00.454Z,986
2022-12-08T20:20:05.381Z,986
2022-12-08T20:25:01.102Z,985.8
2022-12-08T20:30:00.455Z,985.8
2022-12-08T20:35:00.456Z,985.8
2022-12-08T20:40:00.474Z,985.8
2022-12-08T20:45:00.458Z,985.4
2022-12-08T20:50:00.626Z,985.1
2022-12-08T20:55:00.576Z,984.9
2022-12-08T21:00:00.499Z,984.5
2022-12-08T21:05:00.768Z,984.5
2022-12-08T21:10:00.575Z,984.5
2022-12-08T21:15:00.685Z,984.5
2022-12-08T21:20:00.587Z,983.6
2022-12-08T21:25:01.367Z,983.6
2022-12-08T21:30:00.733Z,983.2
2022-12-08T21:35:00.646Z,983.2
2022-12-08T21:40:00.732Z,983.2
2022-12-08T21:45:00.598Z,983.2
2022-12-08T21:50:00.606Z,983.2
2022-12-08T21:55:00.695Z,983.6
2022-12-08T22:00:00.741Z,983.6
2022-12-08T22:05:00.636Z,983.2
2022-12-08T22:10:00.779Z,983.4
2022-12-08T22:15:00.720Z,983.2
2022-12-08T22:20:00.606Z,982.1
2022-12-08T22:25:00.755Z,981.9
2022-12-08T22:30:00.756Z,981.4
2022-12-08T22:35:00.578Z,981.2
2022-12-08T22:40:00.700Z,981
2022-12-08T22:45:00.650Z,980.6
2022-12-08T22:50:00.909Z,980.6
2022-12-08T22:55:00.694Z,980.6
2022-12-08T23:00:00.626Z,980.8
2022-12-08T23:05:00.778Z,981
2022-12-08T23:10:00.908Z,981
2022-12-08T23:15:00.848Z,981
2022-12-08T23:20:00.629Z,980.8
2022-12-08T23:25:00.823Z,981
2022-12-08T23:30:00.851Z,981
2022-12-08T23:35:00.740Z,981
2022-12-08T23:40:00.645Z,981
2022-12-08T23:45:00.864Z,981
2022-12-08T23:50:00.757Z,981
2022-12-08T23:55:00.909Z,981.2
